sensor_id;sensor_type;location;lat;lon;timestamp;pressure;altitude;pressure_sealevel;temperature;humidity
46464;BME280;32161;48.148;-1.554;2023-03-14T00:00:09;98883.78;;;12.02;100.00
46464;BME280;32161;48.148;-1.554;2023-03-14T00:02:39;98887.84;;;12.04;100.00
46464;BME280;32161;48.148;-1.554;2023-03-14T00:05:08;98899.56;;;12.05;100.00
46464;BME280;32161;48.148;-1.554;2023-03-14T00:07:38;98898.50;;;12.01;100.00
46464;BME280;32161;48.148;-1.554;2023-03-14T00:10:09;98908.69;;;12.19;100.00
46464;BME280;32161;48.148;-1.554;2023-03-14T00:12:38;98907.34;;;12.16;99.73
46464;BME280;32161;48.148;-1.554;2023-03-14T00:15:08;98920.34;;;12.25;99.75
46464;BME280;32161;48.148;-1.554;2023-03-14T00:17:36;98912.59;;;12.08;99.54
46464;BME280;32161;48.148;-1.554;2023-03-14T00:20:06;98922.25;;;12.24;98.52
46464;BME280;32161;48.148;-1.554;2023-03-14T00:22:36;98936.50;;;12.16;98.83
46464;BME280;32161;48.148;-1.554;2023-03-14T00:25:06;98936.25;;;12.12;99.06
46464;BME280;32161;48.148;-1.554;2023-03-14T00:27:35;98934.16;;;11.99;100.00
46464;BME280;32161;48.148;-1.554;2023-03-14T00:30:06;98934.84;;;12.20;100.00
46464;BME280;32161;48.148;-1.554;2023-03-14T00:32:35;98943.97;;;12.00;100.00
46464;BME280;32161;48.148;-1.554;2023-03-14T00:35:03;98949.06;;;12.12;100.00
46464;BME280;32161;48.148;-1.554;2023-03-14T00:37:31;98958.34;;;12.11;99.71
46464;BME280;32161;48.148;-1.554;2023-03-14T00:39:58;98966.50;;;12.11;100.00
46464;BME280;32161;48.148;-1.554;2023-03-14T00:42:26;98965.00;;;11.89;100.00
46464;BME280;32161;48.148;-1.554;2023-03-14T00:44:54;98977.03;;;11.78;100.00
46464;BME280;32161;48.148;-1.554;2023-03-14T00:47:22;98980.03;;;11.77;100.00
46464;BME280;32161;48.148;-1.554;2023-03-14T00:49:50;98981.41;;;11.74;100.00
46464;BME280;32161;48.148;-1.554;2023-03-14T00:52:18;98999.91;;;11.77;100.00
46464;BME280;32161;48.148;-1.554;2023-03-14T00:54:45;99008.16;;;11.62;100.00
46464;BME280;32161;48.148;-1.554;2023-03-14T00:57:13;99015.25;;;11.58;100.00
46464;BME280;32161;48.148;-1.554;2023-03-14T00:59:40;99021.03;;;11.46;100.00
46464;BME280;32161;48.148;-1.554;2023-03-14T01:02:08;99039.81;;;11.42;100.00
46464;BME280;32161;48.148;-1.554;2023-03-14T01:04:37;99038.78;;;11.18;100.00
46464;BME280;32161;48.148;-1.554;2023-03-14T01:07:05;99061.63;;;11.07;100.00
46464;BME280;32161;48.148;-1.554;2023-03-14T01:09:33;99090.78;;;10.81;100.00
46464;BME280;32161;48.148;-1.554;2023-03-14T01:12:00;99092.66;;;10.70;100.00
46464;BME280;32161;48.148;-1.554;2023-03-14T01:14:28;99114.66;;;10.53;100.00
46464;BME280;32161;48.148;-1.554;2023-03-14T01:16:56;99129.56;;;10.30;100.00
46464;BME280;32161;48.148;-1.554;2023-03-14T01:19:26;99153.41;;;10.23;100.00
46464;BME280;32161;48.148;-1.554;2023-03-14T01:21:55;99153.09;;;10.09;100.00
46464;BME280;32161;48.148;-1.554;2023-03-14T01:24:23;99162.09;;;10.15;99.48
46464;BME280;32161;48.148;-1.554;2023-03-14T01:26:50;99189.41;;;9.98;100.00
46464;BME280;32161;48.148;-1.554;2023-03-14T01:29:18;99177.19;;;9.95;99.77
46464;BME280;32161;48.148;-1.554;2023-03-14T01:31:46;99201.88;;;9.94;99.02
46464;BME280;32161;48.148;-1.554;2023-03-14T01:34:13;99194.91;;;10.08;96.46
46464;BME280;32161;48.148;-1.554;2023-03-14T01:36:41;99205.94;;;9.91;95.79
46464;BME280;32161;48.148;-1.554;2023-03-14T01:39:10;99224.31;;;9.74;96.00
46464;BME280;32161;48.148;-1.554;2023-03-14T01:41:40;99230.69;;;10.00;94.70
46464;BME280;32161;48.148;-1.554;2023-03-14T01:44:10;99245.00;;;9.85;94.71
46464;BME280;32161;48.148;-1.554;2023-03-14T01:46:40;99241.78;;;9.93;93.19
46464;BME280;32161;48.148;-1.554;2023-03-14T01:49:22;99248.50;;;9.81;92.30
46464;BME280;32161;48.148;-1.554;2023-03-14T01:51:56;99260.50;;;9.95;91.82
46464;BME280;32161;48.148;-1.554;2023-03-14T01:54:31;99279.72;;;9.83;91.50
46464;BME280;32161;48.148;-1.554;2023-03-14T01:57:07;99285.72;;;9.85;90.70
46464;BME280;32161;48.148;-1.554;2023-03-14T01:59:37;99301.66;;;9.76;90.54
46464;BME280;32161;48.148;-1.554;2023-03-14T02:02:07;99308.19;;;9.81;90.62
46464;BME280;32161;48.148;-1.554;2023-03-14T02:04:37;99317.75;;;9.56;90.83
46464;BME280;32161;48.148;-1.554;2023-03-14T02:07:12;99329.69;;;9.55;92.56
46464;BME280;32161;48.148;-1.554;2023-03-14T02:09:42;99335.38;;;9.53;93.08
46464;BME280;32161;48.148;-1.554;2023-03-14T02:12:13;99355.44;;;9.52;92.16
46464;BME280;32161;48.148;-1.554;2023-03-14T02:14:42;99356.00;;;9.54;93.34
46464;BME280;32161;48.148;-1.554;2023-03-14T02:17:16;99360.44;;;9.66;93.40
46464;BME280;32161;48.148;-1.554;2023-03-14T02:22:41;99376.25;;;9.42;94.15
46464;BME280;32161;48.148;-1.554;2023-03-14T02:25:14;99381.75;;;9.25;94.76
46464;BME280;32161;48.148;-1.554;2023-03-14T02:27:45;99398.06;;;9.30;95.32
46464;BME280;32161;48.148;-1.554;2023-03-14T02:30:17;99398.78;;;9.20;95.92
46464;BME280;32161;48.148;-1.554;2023-03-14T02:32:48;99411.41;;;9.37;94.74
46464;BME280;32161;48.148;-1.554;2023-03-14T02:35:21;99409.94;;;9.24;95.13
46464;BME280;32161;48.148;-1.554;2023-03-14T02:37:55;99419.38;;;9.21;95.45
46464;BME280;32161;48.148;-1.554;2023-03-14T02:40:24;99417.00;;;9.25;95.63
46464;BME280;32161;48.148;-1.554;2023-03-14T02:42:53;99425.25;;;9.35;95.26
46464;BME280;32161;48.148;-1.554;2023-03-14T02:45:43;99423.78;;;9.49;93.54
46464;BME280;32161;48.148;-1.554;2023-03-14T02:48:18;99441.72;;;9.28;91.59
46464;BME280;32161;48.148;-1.554;2023-03-14T02:50:48;99451.09;;;9.21;91.53
46464;BME280;32161;48.148;-1.554;2023-03-14T02:53:19;99454.25;;;9.13;93.31
46464;BME280;32161;48.148;-1.554;2023-03-14T02:55:48;99462.63;;;9.33;93.70
46464;BME280;32161;48.148;-1.554;2023-03-14T02:58:18;99470.97;;;9.26;93.12
46464;BME280;32161;48.148;-1.554;2023-03-14T03:00:46;99478.16;;;9.16;93.45
46464;BME280;32161;48.148;-1.554;2023-03-14T03:03:15;99487.94;;;9.17;93.79
46464;BME280;32161;48.148;-1.554;2023-03-14T03:05:42;99486.16;;;9.27;91.86
46464;BME280;32161;48.148;-1.554;2023-03-14T03:08:10;99484.91;;;9.35;91.52
46464;BME280;32161;48.148;-1.554;2023-03-14T03:10:38;99497.78;;;9.23;90.44
46464;BME280;32161;48.148;-1.554;2023-03-14T03:13:06;99500.28;;;9.08;91.19
46464;BME280;32161;48.148;-1.554;2023-03-14T03:15:34;99509.59;;;8.95;91.26
46464;BME280;32161;48.148;-1.554;2023-03-14T03:18:02;99513.13;;;8.95;90.28
46464;BME280;32161;48.148;-1.554;2023-03-14T03:20:30;99523.94;;;8.73;91.55
46464;BME280;32161;48.148;-1.554;2023-03-14T03:22:58;99535.88;;;8.94;90.58
46464;BME280;32161;48.148;-1.554;2023-03-14T03:25:26;99560.63;;;8.81;91.02
46464;BME280;32161;48.148;-1.554;2023-03-14T03:27:54;99551.19;;;8.67;91.11
46464;BME280;32161;48.148;-1.554;2023-03-14T03:30:22;99557.97;;;8.86;89.19
46464;BME280;32161;48.148;-1.554;2023-03-14T03:32:51;99573.69;;;8.84;89.44
46464;BME280;32161;48.148;-1.554;2023-03-14T03:35:18;99572.28;;;8.82;88.50
46464;BME280;32161;48.148;-1.554;2023-03-14T03:37:46;99573.75;;;8.72;89.71
46464;BME280;32161;48.148;-1.554;2023-03-14T03:40:14;99569.31;;;8.66;89.07
46464;BME280;32161;48.148;-1.554;2023-03-14T03:42:41;99582.53;;;8.79;88.67
46464;BME280;32161;48.148;-1.554;2023-03-14T03:45:09;99582.38;;;8.69;89.25
46464;BME280;32161;48.148;-1.554;2023-03-14T03:47:37;99592.31;;;8.80;88.70
46464;BME280;32161;48.148;-1.554;2023-03-14T03:50:07;99603.25;;;8.69;87.97
46464;BME280;32161;48.148;-1.554;2023-03-14T03:52:35;99608.06;;;8.67;88.84
46464;BME280;32161;48.148;-1.554;2023-03-14T03:55:03;99613.06;;;8.75;88.85
46464;BME280;32161;48.148;-1.554;2023-03-14T03:57:31;99618.41;;;8.87;88.44
46464;BME280;32161;48.148;-1.554;2023-03-14T03:59:58;99632.88;;;8.92;88.26
46464;BME280;32161;48.148;-1.554;2023-03-14T04:02:26;99635.47;;;8.87;88.34
46464;BME280;32161;48.148;-1.554;2023-03-14T04:04:53;99642.47;;;8.83;88.12
46464;BME280;32161;48.148;-1.554;2023-03-14T04:07:22;99645.84;;;9.07;87.24
46464;BME280;32161;48.148;-1.554;2023-03-14T04:09:50;99639.44;;;8.96;87.12
46464;BME280;32161;48.148;-1.554;2023-03-14T04:12:17;99644.19;;;8.89;88.15
46464;BME280;32161;48.148;-1.554;2023-03-14T04:14:46;99659.22;;;8.80;88.68
46464;BME280;32161;48.148;-1.554;2023-03-14T04:17:13;99667.28;;;8.92;89.45
46464;BME280;32161;48.148;-1.554;2023-03-14T04:19:41;99667.44;;;8.85;91.02
46464;BME280;32161;48.148;-1.554;2023-03-14T04:22:09;99678.00;;;8.70;93.22
46464;BME280;32161;48.148;-1.554;2023-03-14T04:24:38;99672.13;;;8.73;94.08
46464;BME280;32161;48.148;-1.554;2023-03-14T04:27:05;99668.97;;;8.64;93.08
46464;BME280;32161;48.148;-1.554;2023-03-14T04:29:33;99680.38;;;8.49;93.63
46464;BME280;32161;48.148;-1.554;2023-03-14T04:32:00;99685.06;;;8.71;92.09
46464;BME280;32161;48.148;-1.554;2023-03-14T04:34:28;99694.66;;;8.62;91.13
46464;BME280;32161;48.148;-1.554;2023-03-14T04:36:55;99685.88;;;8.54;91.23
46464;BME280;32161;48.148;-1.554;2023-03-14T04:39:23;99699.00;;;8.63;90.36
46464;BME280;32161;48.148;-1.554;2023-03-14T04:41:52;99714.19;;;8.64;89.46
46464;BME280;32161;48.148;-1.554;2023-03-14T04:44:20;99717.34;;;8.44;90.05
46464;BME280;32161;48.148;-1.554;2023-03-14T04:46:47;99736.06;;;8.45;89.70
46464;BME280;32161;48.148;-1.554;2023-03-14T04:49:15;99744.91;;;8.29;90.29
46464;BME280;32161;48.148;-1.554;2023-03-14T04:51:42;99754.13;;;8.16;90.85
46464;BME280;32161;48.148;-1.554;2023-03-14T04:54:10;99760.94;;;8.07;88.60
46464;BME280;32161;48.148;-1.554;2023-03-14T04:56:37;99775.66;;;7.99;89.32
46464;BME280;32161;48.148;-1.554;2023-03-14T04:59:06;99772.13;;;8.11;89.13
46464;BME280;32161;48.148;-1.554;2023-03-14T05:01:34;99778.16;;;8.13;88.90
46464;BME280;32161;48.148;-1.554;2023-03-14T05:04:02;99774.03;;;7.98;89.53
46464;BME280;32161;48.148;-1.554;2023-03-14T05:06:30;99787.19;;;8.06;88.84
46464;BME280;32161;48.148;-1.554;2023-03-14T05:08:57;99778.72;;;8.03;88.80
46464;BME280;32161;48.148;-1.554;2023-03-14T05:11:25;99785.16;;;8.25;88.14
46464;BME280;32161;48.148;-1.554;2023-03-14T05:13:52;99798.25;;;8.40;87.54
46464;BME280;32161;48.148;-1.554;2023-03-14T05:16:21;99798.13;;;8.47;86.05
46464;BME280;32161;48.148;-1.554;2023-03-14T05:18:50;99812.56;;;8.52;85.45
46464;BME280;32161;48.148;-1.554;2023-03-14T05:21:17;99810.94;;;8.51;83.62
46464;BME280;32161;48.148;-1.554;2023-03-14T05:23:45;99814.97;;;8.37;84.66
46464;BME280;32161;48.148;-1.554;2023-03-14T05:26:12;99823.53;;;8.22;84.20
46464;BME280;32161;48.148;-1.554;2023-03-14T05:28:40;99836.41;;;8.39;84.35
46464;BME280;32161;48.148;-1.554;2023-03-14T05:31:08;99836.50;;;8.44;82.98
46464;BME280;32161;48.148;-1.554;2023-03-14T05:33:37;99835.22;;;8.23;83.22
46464;BME280;32161;48.148;-1.554;2023-03-14T05:36:06;99840.25;;;8.31;82.97
46464;BME280;32161;48.148;-1.554;2023-03-14T05:38:34;99837.91;;;8.35;82.80
46464;BME280;32161;48.148;-1.554;2023-03-14T05:41:01;99840.38;;;8.48;81.64
46464;BME280;32161;48.148;-1.554;2023-03-14T05:43:29;99852.28;;;8.47;80.87
46464;BME280;32161;48.148;-1.554;2023-03-14T05:45:57;99860.59;;;8.33;81.39
46464;BME280;32161;48.148;-1.554;2023-03-14T05:48:24;99870.06;;;8.19;81.28
46464;BME280;32161;48.148;-1.554;2023-03-14T05:50:57;99872.97;;;8.29;80.73
46464;BME280;32161;48.148;-1.554;2023-03-14T05:53:25;99885.22;;;8.32;80.71
46464;BME280;32161;48.148;-1.554;2023-03-14T05:55:56;99888.88;;;8.26;80.06
46464;BME280;32161;48.148;-1.554;2023-03-14T05:58:24;99892.28;;;8.33;80.21
46464;BME280;32161;48.148;-1.554;2023-03-14T06:00:51;99902.44;;;8.49;79.82
46464;BME280;32161;48.148;-1.554;2023-03-14T06:03:19;99915.50;;;8.41;79.76
46464;BME280;32161;48.148;-1.554;2023-03-14T06:05:49;99913.47;;;8.36;80.26
46464;BME280;32161;48.148;-1.554;2023-03-14T06:08:18;99922.34;;;8.43;79.57
46464;BME280;32161;48.148;-1.554;2023-03-14T06:10:46;99928.22;;;8.40;79.54
46464;BME280;32161;48.148;-1.554;2023-03-14T06:13:13;99933.16;;;8.55;78.72
46464;BME280;32161;48.148;-1.554;2023-03-14T06:15:41;99942.72;;;8.46;78.70
46464;BME280;32161;48.148;-1.554;2023-03-14T06:18:09;99947.88;;;8.47;78.45
46464;BME280;32161;48.148;-1.554;2023-03-14T06:20:37;99950.47;;;8.54;78.53
46464;BME280;32161;48.148;-1.554;2023-03-14T06:23:05;99949.16;;;8.45;78.60
46464;BME280;32161;48.148;-1.554;2023-03-14T06:25:35;99965.84;;;8.18;78.38
46464;BME280;32161;48.148;-1.554;2023-03-14T06:28:03;99966.81;;;8.24;79.21
46464;BME280;32161;48.148;-1.554;2023-03-14T06:30:31;99975.19;;;8.34;79.10
46464;BME280;32161;48.148;-1.554;2023-03-14T06:32:58;99981.41;;;8.23;78.75
46464;BME280;32161;48.148;-1.554;2023-03-14T06:35:26;99983.06;;;8.36;78.84
46464;BME280;32161;48.148;-1.554;2023-03-14T06:37:53;99995.63;;;8.30;79.41
46464;BME280;32161;48.148;-1.554;2023-03-14T06:40:21;99999.75;;;8.21;79.67
46464;BME280;32161;48.148;-1.554;2023-03-14T06:42:50;100001.41;;;8.33;79.30
46464;BME280;32161;48.148;-1.554;2023-03-14T06:45:18;100011.84;;;8.18;79.57
46464;BME280;32161;48.148;-1.554;2023-03-14T06:47:45;100012.25;;;8.33;80.30
46464;BME280;32161;48.148;-1.554;2023-03-14T06:50:13;100021.25;;;8.46;79.59
46464;BME280;32161;48.148;-1.554;2023-03-14T06:52:41;100023.97;;;8.46;79.12
46464;BME280;32161;48.148;-1.554;2023-03-14T06:55:13;100035.97;;;8.38;79.89
46464;BME280;32161;48.148;-1.554;2023-03-14T06:57:41;100034.50;;;8.24;79.54
46464;BME280;32161;48.148;-1.554;2023-03-14T07:00:13;100051.03;;;8.04;80.46
46464;BME280;32161;48.148;-1.554;2023-03-14T07:02:41;100053.81;;;7.97;81.21
46464;BME280;32161;48.148;-1.554;2023-03-14T07:05:09;100063.69;;;7.92;81.47
46464;BME280;32161;48.148;-1.554;2023-03-14T07:07:37;100071.13;;;7.96;80.43
46464;BME280;32161;48.148;-1.554;2023-03-14T07:10:05;100070.06;;;7.97;80.17
46464;BME280;32161;48.148;-1.554;2023-03-14T07:12:34;100076.38;;;7.91;80.36
46464;BME280;32161;48.148;-1.554;2023-03-14T07:15:03;100088.78;;;7.99;81.02
46464;BME280;32161;48.148;-1.554;2023-03-14T07:17:32;100095.50;;;7.96;81.18
46464;BME280;32161;48.148;-1.554;2023-03-14T07:19:59;100098.03;;;7.91;81.73
46464;BME280;32161;48.148;-1.554;2023-03-14T07:22:27;100108.41;;;7.94;80.97
46464;BME280;32161;48.148;-1.554;2023-03-14T07:24:54;100116.53;;;7.94;81.89
46464;BME280;32161;48.148;-1.554;2023-03-14T07:27:22;100128.63;;;7.92;81.82
46464;BME280;32161;48.148;-1.554;2023-03-14T07:29:49;100139.97;;;8.00;81.75
46464;BME280;32161;48.148;-1.554;2023-03-14T07:32:17;100143.22;;;7.91;83.44
46464;BME280;32161;48.148;-1.554;2023-03-14T07:34:46;100143.56;;;8.13;84.21
46464;BME280;32161;48.148;-1.554;2023-03-14T07:37:13;100142.00;;;8.35;83.30
46464;BME280;32161;48.148;-1.554;2023-03-14T07:39:41;100148.94;;;8.31;82.94
46464;BME280;32161;48.148;-1.554;2023-03-14T07:42:09;100150.38;;;7.85;82.65
46464;BME280;32161;48.148;-1.554;2023-03-14T07:44:37;100153.72;;;7.99;84.13
46464;BME280;32161;48.148;-1.554;2023-03-14T07:47:04;100154.63;;;8.11;82.76
46464;BME280;32161;48.148;-1.554;2023-03-14T07:49:32;100163.41;;;8.06;83.08
46464;BME280;32161;48.148;-1.554;2023-03-14T07:52:01;100171.91;;;7.92;83.26
46464;BME280;32161;48.148;-1.554;2023-03-14T07:54:29;100179.97;;;7.80;83.70
46464;BME280;32161;48.148;-1.554;2023-03-14T07:56:56;100183.66;;;8.04;83.61
46464;BME280;32161;48.148;-1.554;2023-03-14T07:59:24;100187.13;;;8.11;84.27
46464;BME280;32161;48.148;-1.554;2023-03-14T08:01:52;100190.91;;;8.22;83.98
46464;BME280;32161;48.148;-1.554;2023-03-14T08:04:20;100196.19;;;8.17;83.45
46464;BME280;32161;48.148;-1.554;2023-03-14T08:06:47;100196.72;;;8.07;84.07
46464;BME280;32161;48.148;-1.554;2023-03-14T08:09:16;100198.84;;;8.05;83.51
46464;BME280;32161;48.148;-1.554;2023-03-14T08:11:44;100202.56;;;8.22;82.80
46464;BME280;32161;48.148;-1.554;2023-03-14T08:14:11;100204.97;;;8.30;82.70
46464;BME280;32161;48.148;-1.554;2023-03-14T08:16:39;100205.78;;;8.31;82.97
46464;BME280;32161;48.148;-1.554;2023-03-14T08:19:06;100218.47;;;8.19;84.51
46464;BME280;32161;48.148;-1.554;2023-03-14T08:21:34;100228.03;;;8.33;83.62
46464;BME280;32161;48.148;-1.554;2023-03-14T08:24:02;100227.25;;;8.14;83.70
46464;BME280;32161;48.148;-1.554;2023-03-14T08:26:31;100230.38;;;8.29;82.70
46464;BME280;32161;48.148;-1.554;2023-03-14T08:28:58;100229.56;;;8.11;81.71
46464;BME280;32161;48.148;-1.554;2023-03-14T08:31:26;100242.50;;;8.08;83.04
46464;BME280;32161;48.148;-1.554;2023-03-14T08:33:54;100242.50;;;8.08;82.12
46464;BME280;32161;48.148;-1.554;2023-03-14T08:36:21;100255.81;;;8.10;82.71
46464;BME280;32161;48.148;-1.554;2023-03-14T08:38:49;100264.16;;;8.27;82.13
46464;BME280;32161;48.148;-1.554;2023-03-14T08:41:16;100260.09;;;8.36;81.94
46464;BME280;32161;48.148;-1.554;2023-03-14T08:43:46;100264.47;;;8.37;81.46
46464;BME280;32161;48.148;-1.554;2023-03-14T08:46:13;100265.38;;;8.49;82.18
46464;BME280;32161;48.148;-1.554;2023-03-14T08:48:41;100272.03;;;8.65;81.13
46464;BME280;32161;48.148;-1.554;2023-03-14T08:51:10;100276.91;;;8.75;81.25
46464;BME280;32161;48.148;-1.554;2023-03-14T08:53:40;100287.09;;;8.61;81.45
46464;BME280;32161;48.148;-1.554;2023-03-14T08:56:09;100288.47;;;8.52;81.86
46464;BME280;32161;48.148;-1.554;2023-03-14T08:58:37;100292.97;;;8.58;81.10
46464;BME280;32161;48.148;-1.554;2023-03-14T09:01:08;100297.75;;;8.74;80.72
46464;BME280;32161;48.148;-1.554;2023-03-14T09:03:35;100285.84;;;8.75;81.78
46464;BME280;32161;48.148;-1.554;2023-03-14T09:06:04;100301.66;;;8.78;80.82
46464;BME280;32161;48.148;-1.554;2023-03-14T09:08:32;100307.06;;;8.78;79.83
46464;BME280;32161;48.148;-1.554;2023-03-14T09:10:59;100315.72;;;8.87;81.35
46464;BME280;32161;48.148;-1.554;2023-03-14T09:13:27;100319.31;;;8.99;80.43
46464;BME280;32161;48.148;-1.554;2023-03-14T09:15:57;100311.47;;;8.91;80.80
46464;BME280;32161;48.148;-1.554;2023-03-14T09:18:26;100315.69;;;9.17;79.73
46464;BME280;32161;48.148;-1.554;2023-03-14T09:20:55;100333.13;;;9.10;79.59
46464;BME280;32161;48.148;-1.554;2023-03-14T09:23:23;100327.53;;;8.93;78.74
46464;BME280;32161;48.148;-1.554;2023-03-14T09:25:55;100329.25;;;8.87;81.30
46464;BME280;32161;48.148;-1.554;2023-03-14T09:28:22;100329.22;;;9.05;79.88
46464;BME280;32161;48.148;-1.554;2023-03-14T09:30:50;100326.84;;;8.97;79.88
46464;BME280;32161;48.148;-1.554;2023-03-14T09:33:18;100342.03;;;8.98;79.36
46464;BME280;32161;48.148;-1.554;2023-03-14T09:35:47;100342.69;;;9.12;78.39
46464;BME280;32161;48.148;-1.554;2023-03-14T09:38:15;100345.72;;;9.04;78.20
46464;BME280;32161;48.148;-1.554;2023-03-14T09:40:43;100347.03;;;9.13;79.69
46464;BME280;32161;48.148;-1.554;2023-03-14T09:43:12;100354.03;;;9.21;79.20
46464;BME280;32161;48.148;-1.554;2023-03-14T09:45:42;100362.56;;;9.36;79.54
46464;BME280;32161;48.148;-1.554;2023-03-14T09:48:16;100362.22;;;9.44;80.53
46464;BME280;32161;48.148;-1.554;2023-03-14T09:50:50;100366.16;;;9.60;77.44
46464;BME280;32161;48.148;-1.554;2023-03-14T09:53:21;100373.00;;;9.63;76.87
46464;BME280;32161;48.148;-1.554;2023-03-14T09:55:51;100373.13;;;9.68;78.84
46464;BME280;32161;48.148;-1.554;2023-03-14T09:58:23;100390.28;;;9.80;76.70
46464;BME280;32161;48.148;-1.554;2023-03-14T10:00:53;100388.16;;;9.82;76.83
46464;BME280;32161;48.148;-1.554;2023-03-14T10:03:26;100390.13;;;9.75;76.67
46464;BME280;32161;48.148;-1.554;2023-03-14T10:05:58;100396.31;;;9.94;75.60
46464;BME280;32161;48.148;-1.554;2023-03-14T10:08:25;100397.03;;;10.01;77.30
46464;BME280;32161;48.148;-1.554;2023-03-14T10:10:54;100399.75;;;10.01;76.11
46464;BME280;32161;48.148;-1.554;2023-03-14T10:13:24;100406.69;;;9.85;74.87
46464;BME280;32161;48.148;-1.554;2023-03-14T10:15:55;100401.16;;;9.92;75.15
46464;BME280;32161;48.148;-1.554;2023-03-14T10:18:23;100417.78;;;9.95;75.42
46464;BME280;32161;48.148;-1.554;2023-03-14T10:21:05;100421.03;;;10.27;74.71
46464;BME280;32161;48.148;-1.554;2023-03-14T10:23:34;100421.03;;;10.27;75.34
46464;BME280;32161;48.148;-1.554;2023-03-14T10:26:14;100424.56;;;10.28;75.54
46464;BME280;32161;48.148;-1.554;2023-03-14T10:28:45;100416.50;;;10.57;76.33
46464;BME280;32161;48.148;-1.554;2023-03-14T10:31:14;100423.84;;;10.56;76.00
46464;BME280;32161;48.148;-1.554;2023-03-14T10:33:43;100453.88;;;10.49;73.54
46464;BME280;32161;48.148;-1.554;2023-03-14T10:36:29;100422.75;;;10.22;71.62
46464;BME280;32161;48.148;-1.554;2023-03-14T10:39:15;100428.84;;;10.36;72.37
46464;BME280;32161;48.148;-1.554;2023-03-14T10:41:47;100434.16;;;10.42;72.36
46464;BME280;32161;48.148;-1.554;2023-03-14T10:44:23;100433.78;;;10.50;72.68
46464;BME280;32161;48.148;-1.554;2023-03-14T10:46:59;100443.00;;;10.73;72.49
46464;BME280;32161;48.148;-1.554;2023-03-14T10:49:29;100452.19;;;10.72;71.96
46464;BME280;32161;48.148;-1.554;2023-03-14T10:52:03;100450.19;;;10.79;73.26
46464;BME280;32161;48.148;-1.554;2023-03-14T10:54:39;100456.22;;;10.81;72.85
46464;BME280;32161;48.148;-1.554;2023-03-14T10:57:07;100456.53;;;10.96;71.13
46464;BME280;32161;48.148;-1.554;2023-03-14T10:59:39;100458.03;;;11.16;70.98
46464;BME280;32161;48.148;-1.554;2023-03-14T11:02:34;100449.91;;;11.04;71.29
46464;BME280;32161;48.148;-1.554;2023-03-14T11:05:19;100451.81;;;10.92;69.57
46464;BME280;32161;48.148;-1.554;2023-03-14T11:07:53;100472.63;;;10.86;70.63
46464;BME280;32161;48.148;-1.554;2023-03-14T11:10:30;100455.56;;;11.03;70.01
46464;BME280;32161;48.148;-1.554;2023-03-14T11:13:15;100465.50;;;11.09;70.27
46464;BME280;32161;48.148;-1.554;2023-03-14T11:16:01;100457.16;;;11.27;69.77
46464;BME280;32161;48.148;-1.554;2023-03-14T11:19:00;100457.16;;;11.27;69.75
46464;BME280;32161;48.148;-1.554;2023-03-14T11:21:35;100457.56;;;11.47;68.14
46464;BME280;32161;48.148;-1.554;2023-03-14T11:24:31;100453.00;;;11.65;65.59
46464;BME280;32161;48.148;-1.554;2023-03-14T11:27:05;100450.63;;;11.57;65.21
46464;BME280;32161;48.148;-1.554;2023-03-14T11:29:39;100451.50;;;11.74;64.02
46464;BME280;32161;48.148;-1.554;2023-03-14T11:32:14;100449.00;;;11.56;64.82
46464;BME280;32161;48.148;-1.554;2023-03-14T11:34:52;100459.94;;;11.44;66.01
46464;BME280;32161;48.148;-1.554;2023-03-14T11:37:26;100456.88;;;11.69;64.66
46464;BME280;32161;48.148;-1.554;2023-03-14T11:40:04;100458.44;;;11.65;63.61
46464;BME280;32161;48.148;-1.554;2023-03-14T11:42:35;100455.50;;;11.55;64.38
46464;BME280;32161;48.148;-1.554;2023-03-14T11:45:17;100465.25;;;11.67;66.23
46464;BME280;32161;48.148;-1.554;2023-03-14T11:47:49;100465.44;;;11.61;64.35
46464;BME280;32161;48.148;-1.554;2023-03-14T11:50:21;100470.22;;;11.70;62.36
46464;BME280;32161;48.148;-1.554;2023-03-14T11:52:53;100478.16;;;11.43;62.05
46464;BME280;32161;48.148;-1.554;2023-03-14T11:55:30;100474.84;;;11.70;64.66
46464;BME280;32161;48.148;-1.554;2023-03-14T11:58:05;100474.56;;;11.83;63.19
46464;BME280;32161;48.148;-1.554;2023-03-14T12:00:39;100475.25;;;11.90;64.19
46464;BME280;32161;48.148;-1.554;2023-03-14T12:03:14;100484.53;;;11.78;63.43
46464;BME280;32161;48.148;-1.554;2023-03-14T12:05:54;100467.25;;;11.72;64.50
46464;BME280;32161;48.148;-1.554;2023-03-14T12:08:40;100480.28;;;11.70;59.85
46464;BME280;32161;48.148;-1.554;2023-03-14T12:11:32;100473.97;;;11.81;59.79
46464;BME280;32161;48.148;-1.554;2023-03-14T12:14:01;100483.84;;;11.70;59.59
46464;BME280;32161;48.148;-1.554;2023-03-14T12:16:35;100475.53;;;11.77;59.13
46464;BME280;32161;48.148;-1.554;2023-03-14T12:19:32;100483.38;;;11.73;59.55
46464;BME280;32161;48.148;-1.554;2023-03-14T12:22:23;100485.34;;;11.78;58.64
46464;BME280;32161;48.148;-1.554;2023-03-14T12:24:55;100482.63;;;11.78;59.40
46464;BME280;32161;48.148;-1.554;2023-03-14T12:28:04;100490.91;;;11.83;58.75
46464;BME280;32161;48.148;-1.554;2023-03-14T12:30:35;100498.47;;;12.10;59.38
46464;BME280;32161;48.148;-1.554;2023-03-14T12:33:29;100499.47;;;12.04;58.84
46464;BME280;32161;48.148;-1.554;2023-03-14T12:36:20;100506.47;;;12.16;58.29
46464;BME280;32161;48.148;-1.554;2023-03-14T12:39:35;100501.34;;;12.37;59.06
46464;BME280;32161;48.148;-1.554;2023-03-14T12:42:08;100510.69;;;12.41;55.68
46464;BME280;32161;48.148;-1.554;2023-03-14T12:44:49;100510.69;;;12.58;54.72
46464;BME280;32161;48.148;-1.554;2023-03-14T12:47:55;100519.59;;;12.70;55.13
46464;BME280;32161;48.148;-1.554;2023-03-14T12:50:38;100506.22;;;12.52;55.88
46464;BME280;32161;48.148;-1.554;2023-03-14T12:53:54;100527.91;;;12.41;58.08
46464;BME280;32161;48.148;-1.554;2023-03-14T12:56:36;100513.16;;;12.59;57.55
46464;BME280;32161;48.148;-1.554;2023-03-14T12:59:35;100528.88;;;12.35;60.36
46464;BME280;32161;48.148;-1.554;2023-03-14T13:02:23;100521.59;;;12.24;58.21
46464;BME280;32161;48.148;-1.554;2023-03-14T13:05:00;100539.94;;;12.45;57.74
46464;BME280;32161;48.148;-1.554;2023-03-14T13:07:35;100532.75;;;12.73;57.82
46464;BME280;32161;48.148;-1.554;2023-03-14T13:10:18;100529.84;;;12.63;57.66
46464;BME280;32161;48.148;-1.554;2023-03-14T13:12:52;100545.97;;;12.81;56.52